Amityville, New York
Current Conditions -  °F | °C
As of 4:56 AM on Wednesday 26 Nov 2014 (Local Time) from KISP Reporting Station
Overcast Overcast  
Wind Chill: 43°   Ceiling: 7500
Heat Index: 48°   Visibility: 10mi
Dew Point: 31°   Wind: 12mph
Humidity: 52%   Direction: 20°NNE
Pressure: 30.11"   Gusts: NA
Location:  40.68°N, 73.42°W
Report Text: KISP 260956Z AUTO 02010KT 10SM FEW055 BKN075 OVC090 09/M01 A3011 RMK AO2 SLP197 T00891006
Loading
Personal Weather Stations






























Interactive Weather Map New forecast layout! Learn more

10-Day Weather Forecast

Advertisements
Track Severe Weather on mobile